Time;durP1;ratioP1;P1;durP2;ratioP2;P2;SDS_P1;SDS_P2;PMS_P1;PMS_P2;Temp;Humidity;BMP_temperature;BMP_pressure;BME280_temperature;BME280_humidity;BME280_pressure;Samples;Min_cycle;Max_cycle;Signal;HPM_P1;HPM_P2
2023/12/25 00:02:08;;;;;;;0.38;0.32;;;13.70;1.00;;;;;;4934966;29;20047;-89
2023/12/25 00:04:35;;;;;;;0.40;0.40;;;13.70;1.00;;;;;;4943125;28;20049;-88
2023/12/25 00:07:02;;;;;;;0.68;0.40;;;13.70;1.00;;;;;;4948947;28;20493;-89
2023/12/25 00:09:30;;;;;;;0.38;0.38;;;13.70;1.00;;;;;;4937962;28;20061;-89
2023/12/25 00:11:57;;;;;;;0.60;0.40;;;13.70;1.00;;;;;;4940355;28;20141;-89
2023/12/25 00:14:25;;;;;;;0.40;0.40;;;13.70;1.00;;;;;;4943466;28;20242;-88
2023/12/25 00:16:52;;;;;;;0.73;0.50;;;13.70;1.00;;;;;;4937890;28;20141;-87
2023/12/25 00:19:19;;;;;;;0.52;0.40;;;13.70;1.00;;;;;;4937365;28;20101;-88
2023/12/25 00:21:46;;;;;;;0.40;0.40;;;13.70;1.00;;;;;;4934562;28;20055;-88
2023/12/25 00:24:13;;;;;;;0.30;0.30;;;13.70;1.00;;;;;;4949905;28;20064;-88
2023/12/25 00:26:43;;;;;;;0.75;0.47;;;13.80;1.00;;;;;;4957226;28;20120;-88
2023/12/25 00:29:10;;;;;;;0.55;0.40;;;13.80;1.00;;;;;;4937336;28;20114;-87
2023/12/25 00:31:37;;;;;;;0.40;0.40;;;13.80;1.00;;;;;;4931993;28;20149;-88
2023/12/25 00:34:04;;;;;;;0.40;0.40;;;13.80;1.00;;;;;;4952992;28;20586;-88
2023/12/25 00:36:31;;;;;;;0.20;0.20;;;13.80;1.00;;;;;;4952780;28;20050;-88
2023/12/25 00:38:58;;;;;;;1.65;0.45;;;13.80;1.00;;;;;;4937359;28;20051;-87
2023/12/25 00:41:30;;;;;;;0.60;0.47;;;13.80;1.00;;;;;;4936214;28;20055;-88
2023/12/25 00:43:58;;;;;;;0.43;0.40;;;13.80;1.00;;;;;;4946063;28;20108;-88
2023/12/25 00:46:26;;;;;;;0.20;0.20;;;13.80;1.00;;;;;;4937711;28;20335;-88
2023/12/25 00:48:53;;;;;;;0.30;0.30;;;13.80;1.00;;;;;;4937548;28;20632;-89
2023/12/25 00:51:23;;;;;;;0.35;0.35;;;13.80;1.00;;;;;;4939011;28;20051;-87
2023/12/25 00:53:50;;;;;;;0.40;0.32;;;13.80;1.00;;;;;;4947554;28;20050;-88
2023/12/25 00:56:17;;;;;;;0.40;0.40;;;13.80;1.00;;;;;;4957120;28;20055;-88
2023/12/25 00:58:45;;;;;;;0.43;0.40;;;13.80;1.00;;;;;;4941133;28;20058;-88
2023/12/25 01:01:12;;;;;;;0.65;0.40;;;13.80;1.00;;;;;;4936867;28;20046;-89
2023/12/25 01:03:39;;;;;;;0.30;0.30;;;13.80;1.00;;;;;;4936767;28;20109;-88
2023/12/25 01:06:06;;;;;;;0.47;0.32;;;13.80;1.00;;;;;;4952816;28;20050;-88
2023/12/25 01:08:33;;;;;;;0.30;0.30;;;13.90;1.00;;;;;;4936530;28;20445;-88
2023/12/25 01:11:05;;;;;;;0.30;0.30;;;13.90;1.00;;;;;;4936909;28;20659;-87
2023/12/25 01:13:32;;;;;;;1.25;0.70;;;13.90;1.00;;;;;;4940845;28;20059;-87
2023/12/25 01:15:59;;;;;;;0.40;0.40;;;13.90;1.00;;;;;;4955270;28;20062;-88
2023/12/25 01:18:26;;;;;;;0.40;0.40;;;13.90;1.00;;;;;;4954741;28;20089;-87
2023/12/25 01:20:53;;;;;;;0.30;0.30;;;13.90;1.00;;;;;;4952903;28;20073;-88
2023/12/25 01:23:20;;;;;;;0.38;0.38;;;13.90;1.00;;;;;;4928966;28;20392;-87
2023/12/25 01:25:47;;;;;;;0.60;0.32;;;13.80;1.00;;;;;;4936509;28;20063;-87
2023/12/25 01:28:15;;;;;;;0.47;0.40;;;13.90;1.00;;;;;;4937589;28;20054;-88
2023/12/25 01:30:43;;;;;;;0.55;0.40;;;13.90;1.00;;;;;;4961704;28;20141;-88
2023/12/25 01:33:10;;;;;;;0.30;0.30;;;13.90;1.00;;;;;;4948217;28;20085;-88
2023/12/25 01:35:37;;;;;;;0.40;0.40;;;13.90;1.00;;;;;;4952988;28;20054;-88
2023/12/25 01:38:04;;;;;;;0.30;0.30;;;13.90;1.00;;;;;;4952446;28;20130;-87
2023/12/25 01:40:31;;;;;;;0.30;0.30;;;13.90;1.00;;;;;;4935959;28;20054;-87
2023/12/25 01:42:59;;;;;;;0.55;0.40;;;13.90;1.00;;;;;;4935847;28;20062;-88
2023/12/25 01:45:26;;;;;;;0.55;0.50;;;13.90;1.00;;;;;;4950956;28;20366;-87
2023/12/25 01:47:53;;;;;;;0.35;0.35;;;13.90;1.00;;;;;;4933585;28;20326;-87
2023/12/25 01:50:21;;;;;;;0.77;0.35;;;13.90;1.00;;;;;;4930476;28;20063;-87
2023/12/25 01:52:49;;;;;;;0.38;0.38;;;13.90;1.00;;;;;;4941341;28;20148;-87
2023/12/25 01:55:17;;;;;;;0.30;0.30;;;13.90;1.00;;;;;;4951652;28;20055;-87
2023/12/25 01:57:44;;;;;;;0.70;0.70;;;13.90;1.00;;;;;;4934811;29;20417;-88
2023/12/25 02:00:11;;;;;;;0.45;0.40;;;13.80;92.00;;;;;;4919191;29;20063;-88
2023/12/25 02:02:41;;;;;;;0.30;0.30;;;13.70;99.90;;;;;;4922051;28;20058;-86
2023/12/25 02:05:08;;;;;;;0.70;0.40;;;13.60;99.90;;;;;;4942913;28;20086;-87
2023/12/25 02:07:39;;;;;;;0.57;0.40;;;13.60;20.00;;;;;;4933603;29;20286;-87
2023/12/25 02:10:07;;;;;;;1.13;0.50;;;13.50;99.90;;;;;;4933917;29;20302;-87
2023/12/25 02:12:35;;;;;;;0.50;0.50;;;13.40;99.90;;;;;;4936092;28;20117;-88
2023/12/25 02:15:05;;;;;;;0.30;0.30;;;13.40;1.00;;;;;;4966106;28;20260;-87
2023/12/25 02:17:33;;;;;;;0.32;0.32;;;13.40;7.00;;;;;;4956153;28;20058;-87
2023/12/25 02:20:00;;;;;;;1.00;0.50;;;13.40;99.90;;;;;;4956573;28;20058;-88
2023/12/25 02:22:27;;;;;;;0.43;0.40;;;13.40;99.90;;;;;;4956134;28;20152;-87
2023/12/25 02:25:13;;;;;;;0.30;0.30;;;13.30;99.90;;;;;;4955018;28;20050;-88
2023/12/25 02:27:40;;;;;;;0.75;0.38;;;13.30;99.90;;;;;;4937787;28;20054;-88
2023/12/25 02:30:07;;;;;;;1.20;0.50;;;13.30;99.90;;;;;;4936926;28;20434;-87
2023/12/25 02:32:34;;;;;;;0.80;0.40;;;13.30;99.90;;;;;;4940277;28;20094;-87
2023/12/25 02:35:02;;;;;;;1.17;0.50;;;13.30;99.90;;;;;;4940665;28;20492;-88
2023/12/25 02:37:30;;;;;;;0.40;0.40;;;13.30;99.90;;;;;;4939782;28;20461;-86
2023/12/25 02:40:03;;;;;;;0.52;0.52;;;13.30;99.90;;;;;;4941947;28;20054;-87
2023/12/25 02:42:35;;;;;;;0.63;0.43;;;13.30;99.90;;;;;;4942872;28;20062;-88
2023/12/25 02:45:03;;;;;;;0.30;0.20;;;13.30;99.90;;;;;;4957933;28;20051;-87
2023/12/25 02:47:31;;;;;;;0.40;0.40;;;13.30;79.00;;;;;;4937157;29;20429;-87
2023/12/25 02:50:00;;;;;;;0.43;0.40;;;13.40;1.00;;;;;;4952627;28;20102;-87
2023/12/25 02:52:29;;;;;;;0.40;0.40;;;13.40;99.90;;;;;;4956908;28;20054;-87
2023/12/25 02:54:56;;;;;;;0.45;0.45;;;13.50;99.90;;;;;;4941058;28;20054;-87
2023/12/25 02:57:23;;;;;;;0.30;0.30;;;13.50;50.60;;;;;;4940675;28;20058;-86
2023/12/25 02:59:52;;;;;;;0.30;0.30;;;13.50;1.00;;;;;;4942028;28;20154;-87
2023/12/25 03:02:21;;;;;;;0.45;0.30;;;13.50;1.00;;;;;;4942604;28;20113;-86
2023/12/25 03:04:54;;;;;;;0.50;0.40;;;13.60;99.90;;;;;;4947911;28;20134;-87
2023/12/25 03:07:22;;;;;;;;;;;13.60;99.90;;;;;;4945464;28;20061;-87
2023/12/25 03:09:50;;;;;;;0.30;0.30;;;13.60;99.90;;;;;;4961029;28;20139;-86
2023/12/25 03:12:19;;;;;;;0.63;0.40;;;13.60;99.90;;;;;;4960857;28;20574;-87
2023/12/25 03:14:51;;;;;;;0.38;0.30;;;13.60;99.90;;;;;;4945359;28;20057;-86
2023/12/25 03:17:19;;;;;;;0.20;0.20;;;13.60;99.90;;;;;;4944281;28;20125;-86
2023/12/25 03:19:46;;;;;;;0.30;0.30;;;13.60;99.90;;;;;;4944594;28;20059;-87
2023/12/25 03:22:14;;;;;;;0.52;0.20;;;13.60;99.90;;;;;;4926388;28;20059;-86
2023/12/25 03:24:41;;;;;;;0.30;0.30;;;13.60;99.90;;;;;;4963364;28;20050;-87
2023/12/25 03:27:10;;;;;;;0.30;0.30;;;13.60;99.90;;;;;;4963234;28;20050;-87
2023/12/25 03:29:39;;;;;;;0.28;0.28;;;13.60;99.90;;;;;;4962540;28;20057;-87
2023/12/25 03:32:06;;;;;;;0.10;0.10;;;13.70;99.90;;;;;;4962580;28;20112;-87
2023/12/25 03:34:55;;;;;;;0.45;0.40;;;13.70;99.90;;;;;;4957302;28;20469;-87
2023/12/25 03:37:27;;;;;;;0.38;0.38;;;13.70;99.90;;;;;;4956506;28;20398;-86
2023/12/25 03:39:57;;;;;;;0.25;0.25;;;13.70;99.90;;;;;;4942716;28;20054;-87
2023/12/25 03:42:28;;;;;;;0.30;0.30;;;13.70;99.90;;;;;;4943307;28;20093;-87
2023/12/25 03:45:00;;;;;;;0.20;0.20;;;13.70;99.90;;;;;;4943937;28;20059;-87
2023/12/25 03:47:28;;;;;;;0.40;0.40;;;13.70;99.90;;;;;;4944014;28;20063;-87
2023/12/25 03:49:59;;;;;;;0.40;0.40;;;13.70;99.90;;;;;;4944741;28;20061;-86
2023/12/25 03:52:26;;;;;;;0.55;0.52;;;13.70;99.90;;;;;;4944528;28;20487;-86
2023/12/25 03:54:57;;;;;;;0.30;0.30;;;13.70;99.90;;;;;;4956043;28;20057;-86
2023/12/25 03:57:24;;;;;;;0.55;0.55;;;13.60;99.90;;;;;;4940302;29;20508;-87
2023/12/25 03:59:59;;;;;;;0.30;0.30;;;13.60;99.90;;;;;;4940366;29;20122;-86
2023/12/25 04:02:30;;;;;;;0.90;0.30;;;13.70;99.90;;;;;;4941122;28;20130;-86
2023/12/25 04:04:58;;;;;;;1.08;0.45;;;13.60;99.90;;;;;;4943196;28;20209;-87
2023/12/25 04:07:26;;;;;;;0.40;0.40;;;13.60;99.90;;;;;;4943000;28;20058;-87
2023/12/25 04:09:54;;;;;;;0.30;0.30;;;13.60;99.90;;;;;;4943351;28;20059;-87
2023/12/25 04:12:22;;;;;;;0.43;0.40;;;13.60;99.90;;;;;;4942598;28;20397;-87
2023/12/25 04:14:49;;;;;;;0.38;0.38;;;13.60;99.90;;;;;;4942946;28;20065;-87
2023/12/25 04:17:16;;;;;;;1.20;0.40;;;13.60;99.90;;;;;;4942653;28;20054;-87
2023/12/25 04:19:48;;;;;;;0.35;0.30;;;13.60;99.90;;;;;;4943381;28;20503;-88
2023/12/25 04:22:16;;;;;;;0.30;0.30;;;13.50;99.90;;;;;;4943392;28;20047;-87
2023/12/25 04:24:46;;;;;;;0.38;0.30;;;13.60;99.90;;;;;;4943653;28;20150;-88
2023/12/25 04:27:13;;;;;;;0.30;0.30;;;13.50;99.90;;;;;;4958537;28;20081;-86
2023/12/25 04:29:44;;;;;;;0.40;0.30;;;13.50;99.90;;;;;;4958773;28;20094;-87
2023/12/25 04:32:12;;;;;;;0.20;0.20;;;13.50;1.00;;;;;;4959021;28;20050;-86
2023/12/25 04:34:41;;;;;;;0.32;0.32;;;13.50;28.70;;;;;;4959507;28;20077;-87
2023/12/25 04:37:10;;;;;;;0.28;0.28;;;13.40;99.90;;;;;;4943529;28;20093;-87
2023/12/25 04:39:37;;;;;;;0.30;0.30;;;13.40;99.90;;;;;;4943021;28;20050;-87
2023/12/25 04:42:05;;;;;;;0.63;0.30;;;13.30;1.00;;;;;;4942386;28;20051;-87
2023/12/25 04:44:32;;;;;;;0.50;0.40;;;13.30;1.00;;;;;;4947239;28;20123;-86
2023/12/25 04:47:00;;;;;;;0.20;0.20;;;13.30;1.00;;;;;;4943440;28;20043;-86
2023/12/25 04:49:28;;;;;;;0.30;0.30;;;13.30;1.00;;;;;;4942609;28;20043;-87
2023/12/25 04:51:56;;;;;;;0.30;0.30;;;13.30;99.90;;;;;;4942392;28;20610;-87
2023/12/25 04:54:26;;;;;;;0.20;0.20;;;13.40;99.90;;;;;;4942297;28;20051;-87
2023/12/25 04:56:57;;;;;;;0.30;0.30;;;13.40;99.90;;;;;;4941970;28;20583;-87
2023/12/25 04:59:25;;;;;;;0.30;0.30;;;13.40;99.90;;;;;;4957825;28;20073;-88
2023/12/25 05:01:53;;;;;;;0.30;0.30;;;13.40;25.70;;;;;;4937253;28;20600;-86
2023/12/25 05:04:20;;;;;;;0.20;0.20;;;13.40;1.00;;;;;;4952878;28;20064;-87
2023/12/25 05:06:57;;;;;;;0.30;0.30;;;13.40;1.00;;;;;;4937776;29;20055;-87
2023/12/25 05:09:31;;;;;;;0.30;0.30;;;13.40;1.00;;;;;;4922363;29;20070;-86
2023/12/25 05:11:57;;;;;;;0.30;0.30;;;13.50;1.00;;;;;;4923078;29;20047;-88
2023/12/25 05:14:26;;;;;;;0.60;0.40;;;13.50;1.00;;;;;;4938334;28;20054;-87
2023/12/25 05:16:53;;;;;;;0.20;0.20;;;13.50;1.00;;;;;;4941436;28;20074;-87
2023/12/25 05:19:22;;;;;;;0.30;0.30;;;13.40;1.00;;;;;;4938409;29;20089;-87
2023/12/25 05:21:49;;;;;;;0.20;0.20;;;13.40;19.90;;;;;;4938604;29;20051;-87
2023/12/25 05:24:20;;;;;;;0.30;0.30;;;13.40;99.90;;;;;;4953048;28;20050;-87
2023/12/25 05:26:47;;;;;;;0.30;0.30;;;13.30;99.90;;;;;;4956833;28;20473;-87
2023/12/25 05:29:22;;;;;;;0.30;0.30;;;13.30;1.00;;;;;;4941558;28;20088;-86
2023/12/25 05:31:50;;;;;;;0.22;0.20;;;13.20;99.90;;;;;;4941556;28;20066;-88
2023/12/25 05:34:17;;;;;;;0.30;0.30;;;13.20;99.90;;;;;;4941272;28;20062;-86
2023/12/25 05:36:51;;;;;;;0.80;0.30;;;13.20;1.00;;;;;;4941159;28;20445;-87
2023/12/25 05:39:19;;;;;;;0.28;0.28;;;13.10;99.90;;;;;;4941329;28;20054;-87
2023/12/25 05:41:48;;;;;;;0.30;0.30;;;13.10;99.90;;;;;;4941307;28;20117;-87
2023/12/25 05:44:16;;;;;;;0.20;0.20;;;13.10;99.90;;;;;;4941156;28;20063;-86
2023/12/25 05:46:47;;;;;;;0.30;0.30;;;13.10;99.90;;;;;;4941073;28;20055;-87
2023/12/25 05:49:14;;;;;;;0.30;0.30;;;13.00;1.00;;;;;;4934309;29;20074;-85
2023/12/25 05:51:51;;;;;;;0.30;0.30;;;13.00;1.00;;;;;;4919915;29;20119;-85
2023/12/25 05:54:20;;;;;;;0.25;0.25;;;13.00;1.00;;;;;;4934173;28;20406;-87
2023/12/25 05:56:51;;;;;;;0.30;0.30;;;13.10;99.90;;;;;;4955169;28;20109;-85
2023/12/25 05:59:18;;;;;;;0.20;0.20;;;13.10;99.90;;;;;;4955483;28;20133;-86
2023/12/25 06:01:53;;;;;;;0.20;0.20;;;13.10;99.90;;;;;;4955421;28;20885;-86
2023/12/25 06:04:22;;;;;;;0.20;0.20;;;13.10;99.90;;;;;;4952015;28;20055;-86
2023/12/25 06:06:53;;;;;;;0.25;0.25;;;13.10;47.40;;;;;;4936486;28;20055;-87
2023/12/25 06:09:25;;;;;;;0.28;0.28;;;13.10;1.00;;;;;;4935155;28;20070;-86
2023/12/25 06:12:02;;;;;;;0.20;0.20;;;13.20;1.00;;;;;;4953132;28;20054;-85
2023/12/25 06:14:31;;;;;;;0.20;0.20;;;13.10;1.00;;;;;;4939096;28;20063;-87
2023/12/25 06:17:02;;;;;;;0.30;0.30;;;13.20;99.90;;;;;;4962499;28;20109;-86
2023/12/25 06:19:29;;;;;;;0.55;0.40;;;13.20;99.90;;;;;;4938108;28;20105;-86
2023/12/25 06:21:58;;;;;;;0.30;0.30;;;13.20;99.90;;;;;;4938225;28;20509;-86
2023/12/25 06:24:25;;;;;;;0.30;0.30;;;13.20;99.90;;;;;;4939661;28;20061;-86
2023/12/25 06:26:52;;;;;;;0.30;0.30;;;13.20;99.90;;;;;;4935245;28;20046;-86
2023/12/25 06:29:20;;;;;;;0.30;0.30;;;13.20;99.90;;;;;;4935539;28;20072;-86
2023/12/25 06:31:48;;;;;;;0.50;0.30;;;13.20;99.90;;;;;;4964788;28;20055;-85
2023/12/25 06:34:18;;;;;;;0.38;0.38;;;13.20;29.70;;;;;;4959192;28;20046;-85
2023/12/25 06:36:45;;;;;;;0.20;0.20;;;13.20;1.00;;;;;;4953378;28;20312;-86
2023/12/25 06:39:12;;;;;;;0.25;0.25;;;13.20;1.00;;;;;;4936732;28;20532;-86
2023/12/25 06:41:39;;;;;;;0.10;0.10;;;13.20;1.00;;;;;;4937425;28;20153;-86
2023/12/25 06:44:11;;;;;;;0.20;0.20;;;13.20;99.90;;;;;;4960219;28;20153;-86
2023/12/25 06:46:41;;;;;;;0.30;0.30;;;13.20;99.90;;;;;;4936691;28;20046;-86
2023/12/25 06:49:10;;;;;;;0.20;0.20;;;13.30;1.00;;;;;;4936607;28;20054;-86
2023/12/25 06:51:44;;;;;;;0.30;0.30;;;13.20;1.00;;;;;;4957486;28;21020;-86
2023/12/25 06:54:12;;;;;;;0.20;0.20;;;13.20;1.00;;;;;;4956495;28;20047;-86
2023/12/25 06:56:42;;;;;;;0.45;0.35;;;13.20;1.00;;;;;;4936972;28;20059;-87
2023/12/25 06:59:08;;;;;;;0.30;0.30;;;13.20;1.00;;;;;;4948464;28;20133;-87
2023/12/25 07:01:37;;;;;;;0.20;0.20;;;13.20;99.90;;;;;;4955164;28;20062;-87
2023/12/25 07:04:05;;;;;;;0.30;0.30;;;13.20;99.90;;;;;;4937369;28;20042;-87
2023/12/25 07:06:33;;;;;;;0.30;0.30;;;13.30;99.90;;;;;;4935673;28;20051;-86
2023/12/25 07:09:02;;;;;;;0.30;0.30;;;13.30;99.90;;;;;;4934730;28;20053;-86
2023/12/25 07:11:29;;;;;;;0.20;0.20;;;13.30;99.90;;;;;;4964999;28;20062;-87
2023/12/25 07:14:00;;;;;;;0.20;0.20;;;13.30;11.50;;;;;;4954505;28;20055;-87
2023/12/25 07:16:34;;;;;;;0.20;0.20;;;13.30;1.00;;;;;;4937547;28;20050;-86
2023/12/25 07:19:01;;;;;;;0.22;0.22;;;13.30;99.90;;;;;;4962662;28;20079;-84
2023/12/25 07:21:30;;;;;;;0.65;0.38;;;13.40;99.90;;;;;;4959628;28;20051;-87
2023/12/25 07:24:12;;;;;;;0.30;0.30;;;13.40;99.90;;;;;;4931963;28;20051;-87
2023/12/25 07:26:40;;;;;;;0.30;0.30;;;13.40;99.90;;;;;;4930902;28;20437;-87
2023/12/25 07:29:09;;;;;;;0.20;0.20;;;13.50;99.90;;;;;;4951618;28;20132;-87
2023/12/25 07:31:37;;;;;;;0.22;0.22;;;13.50;99.90;;;;;;4934955;28;20042;-87
2023/12/25 07:34:04;;;;;;;0.40;0.40;;;13.50;85.10;;;;;;4933482;28;20059;-87
2023/12/25 07:36:31;;;;;;;0.30;0.30;;;13.50;56.90;;;;;;4958158;28;20050;-87
2023/12/25 07:38:59;;;;;;;0.40;0.30;;;13.50;20.80;;;;;;4935727;28;20464;-86
2023/12/25 07:41:28;;;;;;;0.38;0.38;;;13.50;6.60;;;;;;4935648;28;20221;-87
2023/12/25 07:44:00;;;;;;;0.80;0.40;;;13.50;1.00;;;;;;4953238;28;20106;-85
2023/12/25 07:46:28;;;;;;;0.57;0.35;;;13.60;1.00;;;;;;4937230;28;20109;-87
2023/12/25 07:48:57;;;;;;;0.20;0.20;;;13.60;1.00;;;;;;4959132;28;20050;-86
2023/12/25 07:51:27;;;;;;;0.20;0.20;;;13.60;1.00;;;;;;4941076;28;20124;-87
2023/12/25 07:53:54;;;;;;;0.30;0.30;;;13.60;1.00;;;;;;4976966;28;20039;-86
2023/12/25 07:56:23;;;;;;;0.30;0.30;;;13.60;1.00;;;;;;4937472;28;20639;-87
2023/12/25 07:58:52;;;;;;;0.28;0.28;;;13.60;1.00;;;;;;4961465;28;20082;-86
2023/12/25 08:01:22;;;;;;;0.45;0.30;;;13.60;1.00;;;;;;4939228;28;20050;-85
2023/12/25 08:03:50;;;;;;;0.30;0.30;;;13.60;1.00;;;;;;4936371;28;20097;-86
2023/12/25 08:06:18;;;;;;;0.20;0.20;;;13.60;1.00;;;;;;4937464;28;20417;-86
2023/12/25 08:08:51;;;;;;;0.40;0.30;;;13.60;1.00;;;;;;4960644;28;20043;-86
2023/12/25 08:11:22;;;;;;;0.30;0.25;;;13.60;99.90;;;;;;4941941;28;20480;-87
2023/12/25 08:13:52;;;;;;;;;;;13.50;1.00;;;;;;4963207;28;20070;-87
2023/12/25 08:16:21;;;;;;;0.98;0.30;;;13.40;99.90;;;;;;4956403;28;19922;-85
2023/12/25 08:18:48;;;;;;;0.40;0.40;;;13.20;1.00;;;;;;4968263;28;20042;-88
2023/12/25 08:21:20;;;;;;;0.43;0.38;;;13.20;99.90;;;;;;4940838;28;20055;-87
2023/12/25 08:23:55;;;;;;;0.50;0.30;;;13.10;99.90;;;;;;4940758;28;20054;-85
2023/12/25 08:26:23;;;;;;;1.15;0.45;;;13.00;1.00;;;;;;4959683;28;20145;-85
2023/12/25 08:28:52;;;;;;;0.20;0.20;;;12.90;41.20;;;;;;4952155;28;20059;-83
2023/12/25 08:31:20;;;;;;;0.75;0.40;;;12.80;1.00;;;;;;4938653;28;20117;-83
2023/12/25 08:33:47;;;;;;;0.43;0.43;;;12.60;1.00;;;;;;4954535;28;20050;-84
2023/12/25 08:36:14;;;;;;;0.30;0.30;;;12.60;99.90;;;;;;4937810;28;20059;-83
2023/12/25 08:38:41;;;;;;;0.40;0.40;;;12.50;99.90;;;;;;4949943;28;20047;-84
2023/12/25 08:41:17;;;;;;;1.45;0.50;;;12.50;1.00;;;;;;4935250;28;20101;-83
2023/12/25 08:43:44;;;;;;;0.30;0.30;;;12.50;66.30;;;;;;4986700;28;20058;-82
2023/12/25 08:46:16;;;;;;;0.30;0.30;;;12.40;99.90;;;;;;4936464;28;20058;-83
2023/12/25 08:48:44;;;;;;;0.30;0.30;;;12.50;99.90;;;;;;4959352;28;20621;-82
2023/12/25 08:51:13;;;;;;;0.30;0.30;;;12.50;99.90;;;;;;4953420;28;20101;-82
2023/12/25 08:53:40;;;;;;;0.30;0.30;;;12.40;99.90;;;;;;4970831;28;20303;-82
2023/12/25 08:56:08;;;;;;;0.22;0.22;;;12.40;99.90;;;;;;4971707;28;20074;-82
2023/12/25 08:58:35;;;;;;;0.32;0.32;;;12.40;99.90;;;;;;4930163;28;20047;-83
2023/12/25 09:01:02;;;;;;;0.40;0.40;;;12.40;99.90;;;;;;4952219;28;20609;-83
2023/12/25 09:03:30;;;;;;;0.35;0.32;;;12.40;99.90;;;;;;4969783;28;20497;-83
2023/12/25 09:05:58;;;;;;;0.35;0.35;;;12.40;99.90;;;;;;4927577;28;20540;-83
2023/12/25 09:08:25;;;;;;;0.43;0.40;;;12.40;99.90;;;;;;4954086;28;20070;-83
2023/12/25 09:10:53;;;;;;;0.38;0.38;;;12.40;99.90;;;;;;4954671;28;20468;-83
2023/12/25 09:13:21;;;;;;;0.25;0.25;;;12.30;99.90;;;;;;4953971;28;20055;-83
2023/12/25 09:15:48;;;;;;;0.30;0.30;;;12.30;99.90;;;;;;4951983;28;20054;-90
2023/12/25 09:18:16;;;;;;;0.20;0.20;;;12.30;99.90;;;;;;4958858;28;20055;-79
2023/12/25 09:20:43;;;;;;;0.45;0.40;;;12.30;99.90;;;;;;4941981;28;20070;-81
2023/12/25 09:23:10;;;;;;;0.38;0.20;;;12.30;99.90;;;;;;4940770;28;20513;-80
2023/12/25 09:25:37;;;;;;;0.28;0.20;;;12.30;99.90;;;;;;4953659;28;21064;-80
2023/12/25 09:28:05;;;;;;;0.55;0.55;;;12.40;99.90;;;;;;4959776;28;20046;-82
2023/12/25 09:30:32;;;;;;;0.43;0.43;;;12.30;99.90;;;;;;4964272;28;20042;-82
2023/12/25 09:32:59;;;;;;;0.40;0.40;;;12.40;99.90;;;;;;4926280;28;20129;-82
2023/12/25 09:35:27;;;;;;;0.40;0.40;;;12.30;99.90;;;;;;4950467;28;20122;-82
2023/12/25 09:37:56;;;;;;;0.82;0.40;;;12.30;78.80;;;;;;4929329;29;20501;-83
2023/12/25 09:40:24;;;;;;;0.10;0.10;;;12.30;79.70;;;;;;4934439;28;20055;-83
2023/12/25 09:42:54;;;;;;;0.45;0.40;;;12.30;53.60;;;;;;4941045;28;20065;-82
2023/12/25 09:45:21;;;;;;;0.32;0.32;;;12.30;1.00;;;;;;4924878;28;20109;-83
2023/12/25 09:47:48;;;;;;;0.30;0.30;;;12.30;1.00;;;;;;4928935;28;20055;-83
2023/12/25 09:50:16;;;;;;;0.65;0.40;;;12.40;99.90;;;;;;4928913;28;20787;-82
2023/12/25 09:52:43;;;;;;;0.40;0.40;;;12.40;99.90;;;;;;4921331;28;20120;-82
2023/12/25 09:55:10;;;;;;;1.00;0.50;;;12.40;99.90;;;;;;4917681;28;20047;-82
2023/12/25 09:57:36;;;;;;;0.63;0.50;;;12.40;1.00;;;;;;4925332;28;20235;-82
2023/12/25 10:00:04;;;;;;;1.23;0.77;;;12.40;99.90;;;;;;4926700;28;20114;-81
2023/12/25 10:02:32;;;;;;;0.52;0.40;;;12.40;99.90;;;;;;4954689;28;20059;-85
2023/12/25 10:05:01;;;;;;;1.48;0.50;;;12.50;99.90;;;;;;4942620;28;20157;-83
2023/12/25 10:07:28;;;;;;;0.88;0.60;;;12.50;99.90;;;;;;4919581;29;20146;-83
2023/12/25 10:09:57;;;;;;;0.65;0.50;;;12.50;74.50;;;;;;4926641;28;20130;-82
2023/12/25 10:12:25;;;;;;;2.08;0.60;;;12.50;99.90;;;;;;4928044;28;20065;-83
2023/12/25 10:14:53;;;;;;;0.85;0.73;;;12.40;99.90;;;;;;4948740;28;20047;-83
2023/12/25 10:17:20;;;;;;;1.15;0.52;;;12.40;1.00;;;;;;4923432;28;20058;-80
2023/12/25 10:19:57;;;;;;;0.75;0.50;;;12.40;99.90;;;;;;4940934;28;20047;-81
2023/12/25 10:22:34;;;;;;;0.55;0.47;;;12.40;99.90;;;;;;4928594;28;20070;-82
2023/12/25 10:25:09;;;;;;;1.77;0.50;;;12.50;1.00;;;;;;4960209;28;20375;-83
2023/12/25 10:27:40;;;;;;;1.13;0.60;;;12.50;99.90;;;;;;4922509;28;20087;-83
2023/12/25 10:30:27;;;;;;;0.93;0.60;;;12.50;1.00;;;;;;4923256;28;20724;-85
2023/12/25 10:33:13;;;;;;;0.43;0.43;;;12.60;1.00;;;;;;4959503;28;20065;-82
2023/12/25 10:35:41;;;;;;;0.98;0.50;;;12.60;1.00;;;;;;4916999;28;20055;-82
2023/12/25 10:38:20;;;;;;;0.73;0.50;;;12.60;1.00;;;;;;4924490;28;20058;-83
2023/12/25 10:40:47;;;;;;;0.60;0.45;;;12.60;1.00;;;;;;4926637;28;20057;-82
2023/12/25 10:43:14;;;;;;;0.73;0.50;;;12.60;99.90;;;;;;4941826;28;20166;-85
2023/12/25 10:45:45;;;;;;;0.70;0.50;;;12.70;99.90;;;;;;4929980;28;20448;-83
2023/12/25 10:48:12;;;;;;;0.77;0.40;;;12.70;99.90;;;;;;4925332;28;20043;-83
2023/12/25 10:50:40;;;;;;;0.50;0.32;;;12.70;99.90;;;;;;4925393;28;20050;-83
2023/12/25 10:53:07;;;;;;;1.95;0.60;;;12.70;99.90;;;;;;4932785;28;20085;-81
2023/12/25 10:55:41;;;;;;;0.45;0.45;;;12.70;99.90;;;;;;4941083;28;20048;-82
2023/12/25 10:58:12;;;;;;;0.93;0.50;;;12.70;28.20;;;;;;4939295;28;20047;-81
2023/12/25 11:00:56;;;;;;;0.50;0.50;;;12.70;3.80;;;;;;4926526;28;20050;-85
2023/12/25 11:03:27;;;;;;;1.33;0.50;;;12.70;37.90;;;;;;4938581;28;20488;-86
2023/12/25 11:05:54;;;;;;;0.93;0.50;;;12.70;99.90;;;;;;4927365;28;20138;-85
2023/12/25 11:08:23;;;;;;;0.57;0.40;;;12.70;99.90;;;;;;4945671;28;20110;-84
2023/12/25 11:11:05;;;;;;;0.60;0.60;;;12.70;1.00;;;;;;4936074;28;20098;-85
2023/12/25 11:13:34;;;;;;;0.63;0.50;;;12.70;1.00;;;;;;4929052;28;20058;-86
2023/12/25 11:16:03;;;;;;;0.75;0.60;;;12.60;1.00;;;;;;4931768;28;20065;-85
2023/12/25 11:18:37;;;;;;;0.90;0.50;;;12.60;1.00;;;;;;4931372;28;20579;-85
2023/12/25 11:21:08;;;;;;;0.45;0.40;;;12.60;1.00;;;;;;4933060;28;20080;-86
2023/12/25 11:23:43;;;;;;;0.57;0.57;;;12.70;63.90;;;;;;4931474;28;20703;-85
2023/12/25 11:26:12;;;;;;;0.85;0.50;;;12.70;99.90;;;;;;4932995;28;20047;-84
2023/12/25 11:28:58;;;;;;;0.80;0.50;;;12.70;99.90;;;;;;4941644;28;20353;-85
2023/12/25 11:31:28;;;;;;;0.50;0.50;;;12.80;99.90;;;;;;4950954;28;20055;-86
2023/12/25 11:34:17;;;;;;;1.08;0.60;;;12.80;99.90;;;;;;4928598;29;20110;-83
2023/12/25 11:36:44;;;;;;;0.93;0.57;;;12.90;99.90;;;;;;4943529;28;20511;-84
2023/12/25 11:39:13;;;;;;;0.82;0.30;;;12.90;1.00;;;;;;4932454;28;20078;-85
2023/12/25 11:41:41;;;;;;;1.40;0.47;;;12.90;99.90;;;;;;4933618;28;20058;-83
2023/12/25 11:44:12;;;;;;;1.65;0.70;;;12.90;99.90;;;;;;4934706;28;20245;-86
2023/12/25 11:46:43;;;;;;;0.85;0.55;;;12.90;99.90;;;;;;4935683;28;20062;-86
2023/12/25 11:49:12;;;;;;;1.02;0.68;;;13.00;99.90;;;;;;4934691;28;20271;-86
2023/12/25 11:51:48;;;;;;;0.73;0.52;;;13.00;99.90;;;;;;4933644;28;20489;-86
2023/12/25 11:54:15;;;;;;;0.68;0.65;;;13.00;97.00;;;;;;4951625;28;20051;-85
2023/12/25 11:56:44;;;;;;;0.60;0.52;;;13.00;42.60;;;;;;4930586;28;20126;-85
2023/12/25 11:59:12;;;;;;;0.50;0.43;;;13.10;10.30;;;;;;4931697;28;20043;-85
2023/12/25 12:01:39;;;;;;;0.55;0.50;;;13.10;23.00;;;;;;4950332;28;20138;-85
2023/12/25 12:04:09;;;;;;;0.28;0.28;;;13.10;1.00;;;;;;4931052;28;20087;-84
2023/12/25 12:06:38;;;;;;;0.93;0.60;;;13.10;1.00;;;;;;4956940;28;20074;-85
2023/12/25 12:09:06;;;;;;;1.30;0.50;;;13.10;1.00;;;;;;4944483;28;20790;-84
2023/12/25 12:11:33;;;;;;;0.93;0.57;;;13.10;1.00;;;;;;4930780;28;20047;-86
2023/12/25 12:14:04;;;;;;;0.75;0.68;;;13.10;1.00;;;;;;4962225;28;20078;-86
2023/12/25 12:16:34;;;;;;;0.33;0.33;;;13.10;1.00;;;;;;4958086;28;20043;-87
2023/12/25 12:19:02;;;;;;;1.00;0.70;;;13.20;1.00;;;;;;4935773;28;20146;-87
2023/12/25 12:21:29;;;;;;;0.98;0.73;;;13.20;1.00;;;;;;4968595;28;20046;-87
2023/12/25 12:23:56;;;;;;;0.70;0.50;;;13.30;1.00;;;;;;4964413;28;20047;-86
2023/12/25 12:26:24;;;;;;;0.60;0.50;;;13.30;1.00;;;;;;4931553;29;20155;-87
2023/12/25 12:28:54;;;;;;;0.95;0.52;;;13.30;1.00;;;;;;4953615;28;20118;-86
2023/12/25 12:31:22;;;;;;;0.93;0.40;;;13.30;1.00;;;;;;4956376;28;20051;-85
2023/12/25 12:33:50;;;;;;;0.75;0.55;;;13.30;99.90;;;;;;4959980;28;20124;-86
2023/12/25 12:36:18;;;;;;;1.10;0.50;;;13.20;99.90;;;;;;4954442;28;20126;-86
2023/12/25 12:38:46;;;;;;;0.65;0.65;;;13.10;1.00;;;;;;4951696;28;20055;-85
2023/12/25 12:41:13;;;;;;;0.60;0.40;;;13.10;99.90;;;;;;4954598;28;20094;-85
2023/12/25 12:43:43;;;;;;;0.52;0.40;;;13.00;1.00;;;;;;4958352;28;20089;-84
2023/12/25 12:46:14;;;;;;;0.40;0.40;;;12.90;99.90;;;;;;4953929;28;20064;-84
2023/12/25 12:48:42;;;;;;;0.40;0.40;;;12.90;99.90;;;;;;4950119;28;20054;-83
2023/12/25 12:51:10;;;;;;;0.52;0.47;;;13.00;1.00;;;;;;4929737;28;20051;-82
2023/12/25 12:53:37;;;;;;;0.40;0.40;;;12.90;99.90;;;;;;4943800;28;20051;-83
2023/12/25 12:56:11;;;;;;;0.40;0.40;;;12.90;1.50;;;;;;4945944;28;20054;-82
2023/12/25 12:58:39;;;;;;;0.40;0.40;;;12.90;99.90;;;;;;4928404;28;20141;-82
2023/12/25 13:01:06;;;;;;;0.60;0.40;;;12.90;1.00;;;;;;4930136;28;20353;-83
2023/12/25 13:03:34;;;;;;;0.30;0.30;;;12.90;99.90;;;;;;4926841;28;20062;-83